SBOSBO OLB / LIEO
Speedbird OnlineSpeedbird Online OLB / LIEO

Olbia Costa Smeralda Airport
01:35 16°C

Location Olbia, Italy
Latitude: 40.898701
Longitude: 9.51763
Local Time 01:35 on 26 May 2024
UTC +2 hours (Europe/Rome)
Currency £1 equals EUR 1.17
METAR LIEO 252250Z VRB02KT CAVOK 16/14 Q1018
TAF TAF LIEO 251700Z 2518/2618 VRB05KT 9999 FEW020 BECMG 2609/2611 09010KT
Weather As Of 26 May 2024 01:35
Description Clear sky
Wind 2 km/h from North (0°)
Cloud Cover 0%
Precipitation Rain: none, Snow: none
Sunrise 05:55
Sunset 20:42
NOTAM 1 active NOTAM
Rotations During the last 90 days there were
3 flights from LHR
1 flights from EDI
3 flights to LHR
1 flights to EDI
Lounges Club Lounge, Main Terminal
Web Wikipedia
Codes IATA: OLB
ICAO: LIEO
Altitude 11 Meter / 37 Feet
Distance 1,381 KM / 858 Miles
from London.
Runways
RunwayLength (m)Surface
052745Asphalt
232745Asphalt
Radio
TypeDescriptionFrequency
APPOLBIA RADAR125.95
ATISATIS113.9
TWROLBIA TWR118.975
Live ATC



Support Speedbird Online

© 2017-2024 Speedbird Online